Airfield :
LOGIN :

Register | Disclaimer

   EN    FR    IT 

 










Legend :    VFR   Marginal VFR   IFR   Intensive IFR   Very Intensive IFR
Visi :
Ceiling :
>= 8 km
>= 3000ft
5 to 8 km
1000 to 3000 ft
1500m to 5 km
500 to 1000 ft
800 to 1500m
200 to 500 ft
< 800m
< 200 ft
Symbols :   Thunderstorms  Fog  Heavy snow  Heavy precipitations  Wind > 20 kt
SIGMETs :     Misc.  Thunderstorms  Icing  Turbulence  Mountain Waves  Volcanic Ashes






- Airport Elevation : 333 ft


LIPL - Ghedi Brescia (Mil)

CURRENT METAR :
  • 190355Z /////KT 0100 R31/0200N FZFG VV001 M04/M06 Q1024 RMK VIS MIN 0100 WIND THR31 31003KT WIND THR13 30002KT RED

EXPIRED METARs :
  • 190255Z /////KT 0100 R31/0250N FZFG VV001 M03/M05 Q1024 RMK VIS MIN 0100 WIND THR31 23002KT WIND THR13 22002KT RED
  • 190155Z /////KT 0100 R31/0200 FZFG VV001 M03/M05 Q1024 RMK VIS MIN 0100 WIND THR31 25001KT WIND THR13 23001KT RED

TAF TAF LIPL
Valid from the 19 at 03:00 until the 19 at 12:00 UTC


190200Z 1903/1912 VRB02KT 0100 FZFG VV001
BECMG 1909/1911 2000 BR SCT030



MET'MAP, your aeronautical weather chart ! - Copyright ORBIFLY December 2007 - Disclaimer

ORBIFLY MET'MAP TEAM :

Programming & Development : Alexandra Zaïnal
Concept & original design : Baudouin d'Aumeries
Assistance for programming : Marc-Olivier Méhu
Technical & hardware support : Manuel Goepfert

Contact : metmap@orbifly.com




SOURCES & CREDITS :

   NOAA